Terminal Aerodrome Forecast
Issued by NWS

Home | Current Version | Previous Version | Text Only | Print | Product List | Glossary On
Versions: 1 2 3 4 5 6 7 8 9 10 11 12 13 14 15 16 17 18
424
FTUS43 KLSX 242320
TAFCPS
TAF
KCPS 242320Z 2500/2524 32009KT P6SM BKN070
      TEMPO 2500/2501 -SHRA
     FM250700 31006KT P6SM SCT070
     FM251400 31008KT P6SM SCT030
     FM252300 23004KT P6SM FEW150=

USA.gov is the U.S. government's official web portal to all federal, state and local government web resources and services.